sensor_id;sensor_type;location;lat;lon;timestamp;P1;durP1;ratioP1;P2;durP2;ratioP2
48014;SDS011;33780;51.034;7.120;2022-08-02T00:02:03;3.05;;;1.92;;
48014;SDS011;33780;51.034;7.120;2022-08-02T00:04:29;3.47;;;2.13;;
48014;SDS011;33780;51.034;7.120;2022-08-02T00:06:54;3.90;;;2.08;;
48014;SDS011;33780;51.034;7.120;2022-08-02T00:09:20;3.33;;;1.90;;
48014;SDS011;33780;51.034;7.120;2022-08-02T00:11:45;5.80;;;2.47;;
48014;SDS011;33780;51.034;7.120;2022-08-02T00:14:10;3.28;;;2.03;;
48014;SDS011;33780;51.034;7.120;2022-08-02T00:16:36;3.00;;;2.13;;
48014;SDS011;33780;51.034;7.120;2022-08-02T00:19:01;2.80;;;1.92;;
48014;SDS011;33780;51.034;7.120;2022-08-02T00:21:27;3.75;;;1.92;;
48014;SDS011;33780;51.034;7.120;2022-08-02T00:23:52;2.90;;;2.05;;
48014;SDS011;33780;51.034;7.120;2022-08-02T00:26:18;3.45;;;2.28;;
48014;SDS011;33780;51.034;7.120;2022-08-02T00:28:43;3.83;;;2.10;;
48014;SDS011;33780;51.034;7.120;2022-08-02T00:31:08;4.15;;;2.10;;
48014;SDS011;33780;51.034;7.120;2022-08-02T00:33:34;3.55;;;2.15;;
48014;SDS011;33780;51.034;7.120;2022-08-02T00:35:59;4.32;;;1.98;;
48014;SDS011;33780;51.034;7.120;2022-08-02T00:38:24;3.40;;;2.35;;
48014;SDS011;33780;51.034;7.120;2022-08-02T00:40:51;3.38;;;2.10;;
48014;SDS011;33780;51.034;7.120;2022-08-02T00:43:17;4.07;;;2.10;;
48014;SDS011;33780;51.034;7.120;2022-08-02T00:45:43;2.85;;;2.13;;
48014;SDS011;33780;51.034;7.120;2022-08-02T00:48:09;5.05;;;2.30;;
48014;SDS011;33780;51.034;7.120;2022-08-02T00:50:36;3.50;;;2.10;;
48014;SDS011;33780;51.034;7.120;2022-08-02T00:53:02;5.05;;;2.30;;
48014;SDS011;33780;51.034;7.120;2022-08-02T00:55:28;2.65;;;2.00;;
48014;SDS011;33780;51.034;7.120;2022-08-02T00:57:54;2.50;;;1.90;;
48014;SDS011;33780;51.034;7.120;2022-08-02T01:00:20;2.83;;;2.00;;
48014;SDS011;33780;51.034;7.120;2022-08-02T01:02:46;3.35;;;1.70;;
48014;SDS011;33780;51.034;7.120;2022-08-02T01:05:11;3.40;;;2.30;;
48014;SDS011;33780;51.034;7.120;2022-08-02T01:07:37;3.00;;;1.92;;
48014;SDS011;33780;51.034;7.120;2022-08-02T01:10:03;3.38;;;2.10;;
48014;SDS011;33780;51.034;7.120;2022-08-02T01:12:29;2.70;;;1.90;;
48014;SDS011;33780;51.034;7.120;2022-08-02T01:14:55;3.95;;;1.90;;
48014;SDS011;33780;51.034;7.120;2022-08-02T01:31:20;3.25;;;1.92;;
48014;SDS011;33780;51.034;7.120;2022-08-02T01:34:03;2.80;;;2.05;;
48014;SDS011;33780;51.034;7.120;2022-08-02T01:36:35;7.20;;;2.30;;
48014;SDS011;33780;51.034;7.120;2022-08-02T01:39:03;2.95;;;2.22;;
48014;SDS011;33780;51.034;7.120;2022-08-02T01:41:31;5.13;;;2.08;;
48014;SDS011;33780;51.034;7.120;2022-08-02T01:43:59;3.83;;;2.08;;
48014;SDS011;33780;51.034;7.120;2022-08-02T01:46:28;4.32;;;2.30;;
48014;SDS011;33780;51.034;7.120;2022-08-02T01:48:55;3.85;;;2.20;;
48014;SDS011;33780;51.034;7.120;2022-08-02T01:51:23;3.28;;;2.10;;
48014;SDS011;33780;51.034;7.120;2022-08-02T01:54:10;5.00;;;2.80;;
48014;SDS011;33780;51.034;7.120;2022-08-02T01:56:38;3.30;;;1.95;;
48014;SDS011;33780;51.034;7.120;2022-08-02T01:59:06;3.85;;;1.98;;
48014;SDS011;33780;51.034;7.120;2022-08-02T02:01:37;5.47;;;2.35;;
48014;SDS011;33780;51.034;7.120;2022-08-02T02:04:04;3.55;;;2.00;;
48014;SDS011;33780;51.034;7.120;2022-08-02T02:06:32;3.40;;;2.10;;
48014;SDS011;33780;51.034;7.120;2022-08-02T02:08:59;2.85;;;1.80;;
48014;SDS011;33780;51.034;7.120;2022-08-02T02:11:26;3.95;;;1.85;;
48014;SDS011;33780;51.034;7.120;2022-08-02T02:13:51;2.78;;;1.85;;
48014;SDS011;33780;51.034;7.120;2022-08-02T02:16:17;3.80;;;2.10;;
48014;SDS011;33780;51.034;7.120;2022-08-02T02:18:45;2.85;;;2.20;;
48014;SDS011;33780;51.034;7.120;2022-08-02T02:21:12;3.55;;;2.50;;
48014;SDS011;33780;51.034;7.120;2022-08-02T02:23:38;5.07;;;2.10;;
48014;SDS011;33780;51.034;7.120;2022-08-02T02:26:04;3.03;;;2.05;;
48014;SDS011;33780;51.034;7.120;2022-08-02T02:28:30;3.08;;;2.20;;
48014;SDS011;33780;51.034;7.120;2022-08-02T02:31:11;4.63;;;2.10;;
48014;SDS011;33780;51.034;7.120;2022-08-02T02:33:40;2.63;;;1.90;;
48014;SDS011;33780;51.034;7.120;2022-08-02T02:38:39;2.60;;;1.83;;
48014;SDS011;33780;51.034;7.120;2022-08-02T02:41:06;3.65;;;1.98;;
48014;SDS011;33780;51.034;7.120;2022-08-02T02:43:32;2.92;;;1.92;;
48014;SDS011;33780;51.034;7.120;2022-08-02T02:45:59;2.50;;;1.95;;
48014;SDS011;33780;51.034;7.120;2022-08-02T02:48:27;2.63;;;1.98;;
48014;SDS011;33780;51.034;7.120;2022-08-02T02:50:53;3.17;;;2.20;;
48014;SDS011;33780;51.034;7.120;2022-08-02T02:53:20;3.80;;;1.90;;
48014;SDS011;33780;51.034;7.120;2022-08-02T02:55:47;7.47;;;2.30;;
48014;SDS011;33780;51.034;7.120;2022-08-02T02:58:13;2.58;;;1.70;;
48014;SDS011;33780;51.034;7.120;2022-08-02T03:00:42;2.70;;;2.00;;
48014;SDS011;33780;51.034;7.120;2022-08-02T03:03:27;2.90;;;1.98;;
48014;SDS011;33780;51.034;7.120;2022-08-02T03:05:53;4.43;;;2.25;;
48014;SDS011;33780;51.034;7.120;2022-08-02T03:08:19;2.80;;;2.00;;
48014;SDS011;33780;51.034;7.120;2022-08-02T03:10:44;4.28;;;1.90;;
48014;SDS011;33780;51.034;7.120;2022-08-02T03:13:10;2.45;;;1.95;;
48014;SDS011;33780;51.034;7.120;2022-08-02T03:15:36;2.90;;;2.00;;
48014;SDS011;33780;51.034;7.120;2022-08-02T03:18:03;3.60;;;2.22;;
48014;SDS011;33780;51.034;7.120;2022-08-02T03:20:31;3.33;;;2.00;;
48014;SDS011;33780;51.034;7.120;2022-08-02T03:22:57;4.30;;;2.20;;
48014;SDS011;33780;51.034;7.120;2022-08-02T03:25:22;3.63;;;2.25;;
48014;SDS011;33780;51.034;7.120;2022-08-02T03:27:47;3.03;;;2.13;;
48014;SDS011;33780;51.034;7.120;2022-08-02T03:30:13;2.85;;;1.60;;
48014;SDS011;33780;51.034;7.120;2022-08-02T03:32:39;2.92;;;1.90;;
48014;SDS011;33780;51.034;7.120;2022-08-02T03:35:07;2.92;;;1.90;;
48014;SDS011;33780;51.034;7.120;2022-08-02T03:37:35;3.80;;;2.00;;
48014;SDS011;33780;51.034;7.120;2022-08-02T03:40:02;3.53;;;2.10;;
48014;SDS011;33780;51.034;7.120;2022-08-02T03:42:29;2.65;;;1.77;;
48014;SDS011;33780;51.034;7.120;2022-08-02T03:44:55;4.18;;;2.10;;
48014;SDS011;33780;51.034;7.120;2022-08-02T03:47:22;4.93;;;1.90;;
48014;SDS011;33780;51.034;7.120;2022-08-02T03:49:48;3.40;;;2.15;;
48014;SDS011;33780;51.034;7.120;2022-08-02T03:52:15;2.67;;;1.95;;
48014;SDS011;33780;51.034;7.120;2022-08-02T03:54:41;2.97;;;1.77;;
48014;SDS011;33780;51.034;7.120;2022-08-02T03:57:06;2.33;;;1.80;;
48014;SDS011;33780;51.034;7.120;2022-08-02T03:59:41;2.88;;;1.90;;
48014;SDS011;33780;51.034;7.120;2022-08-02T04:02:08;2.40;;;1.70;;
48014;SDS011;33780;51.034;7.120;2022-08-02T04:04:34;4.18;;;1.95;;
48014;SDS011;33780;51.034;7.120;2022-08-02T04:06:59;3.53;;;2.10;;
48014;SDS011;33780;51.034;7.120;2022-08-02T04:09:25;2.80;;;1.83;;
48014;SDS011;33780;51.034;7.120;2022-08-02T04:11:50;3.03;;;1.88;;
48014;SDS011;33780;51.034;7.120;2022-08-02T04:14:15;2.78;;;1.90;;
48014;SDS011;33780;51.034;7.120;2022-08-02T04:16:54;4.25;;;2.10;;
48014;SDS011;33780;51.034;7.120;2022-08-02T04:19:33;2.33;;;1.77;;
48014;SDS011;33780;51.034;7.120;2022-08-02T04:22:16;2.88;;;1.70;;
48014;SDS011;33780;51.034;7.120;2022-08-02T04:24:44;3.72;;;2.03;;
48014;SDS011;33780;51.034;7.120;2022-08-02T04:27:13;2.63;;;1.77;;
48014;SDS011;33780;51.034;7.120;2022-08-02T04:29:39;3.40;;;1.95;;
48014;SDS011;33780;51.034;7.120;2022-08-02T04:32:05;3.05;;;1.88;;
48014;SDS011;33780;51.034;7.120;2022-08-02T04:34:31;3.72;;;1.90;;
48014;SDS011;33780;51.034;7.120;2022-08-02T04:36:58;3.20;;;2.00;;
48014;SDS011;33780;51.034;7.120;2022-08-02T04:39:23;3.88;;;2.03;;
48014;SDS011;33780;51.034;7.120;2022-08-02T04:41:49;2.83;;;2.08;;
48014;SDS011;33780;51.034;7.120;2022-08-02T04:44:14;2.65;;;2.00;;
48014;SDS011;33780;51.034;7.120;2022-08-02T04:46:40;3.83;;;2.15;;
48014;SDS011;33780;51.034;7.120;2022-08-02T04:49:07;3.55;;;2.08;;
48014;SDS011;33780;51.034;7.120;2022-08-02T04:51:35;5.45;;;2.20;;
48014;SDS011;33780;51.034;7.120;2022-08-02T04:54:02;3.28;;;1.95;;
48014;SDS011;33780;51.034;7.120;2022-08-02T04:56:28;4.72;;;2.15;;
48014;SDS011;33780;51.034;7.120;2022-08-02T04:58:53;5.75;;;2.28;;
48014;SDS011;33780;51.034;7.120;2022-08-02T05:01:19;3.15;;;2.28;;
48014;SDS011;33780;51.034;7.120;2022-08-02T05:03:44;4.78;;;2.20;;
48014;SDS011;33780;51.034;7.120;2022-08-02T05:06:09;4.05;;;2.10;;
48014;SDS011;33780;51.034;7.120;2022-08-02T05:08:35;3.20;;;2.05;;
48014;SDS011;33780;51.034;7.120;2022-08-02T05:11:00;6.88;;;2.05;;
48014;SDS011;33780;51.034;7.120;2022-08-02T05:13:25;4.07;;;2.10;;
48014;SDS011;33780;51.034;7.120;2022-08-02T05:15:50;3.28;;;2.17;;
48014;SDS011;33780;51.034;7.120;2022-08-02T05:18:16;2.88;;;2.17;;
48014;SDS011;33780;51.034;7.120;2022-08-02T05:20:42;4.63;;;2.40;;
48014;SDS011;33780;51.034;7.120;2022-08-02T05:23:07;3.60;;;2.38;;
48014;SDS011;33780;51.034;7.120;2022-08-02T05:25:33;3.13;;;2.13;;
48014;SDS011;33780;51.034;7.120;2022-08-02T05:27:58;3.80;;;2.40;;
48014;SDS011;33780;51.034;7.120;2022-08-02T05:30:23;4.13;;;2.47;;
48014;SDS011;33780;51.034;7.120;2022-08-02T05:32:49;3.20;;;2.00;;
48014;SDS011;33780;51.034;7.120;2022-08-02T05:35:21;3.80;;;2.35;;
48014;SDS011;33780;51.034;7.120;2022-08-02T05:37:49;4.10;;;2.40;;
48014;SDS011;33780;51.034;7.120;2022-08-02T05:40:15;4.40;;;2.15;;
48014;SDS011;33780;51.034;7.120;2022-08-02T05:42:41;5.10;;;2.45;;
48014;SDS011;33780;51.034;7.120;2022-08-02T05:45:07;4.10;;;2.40;;
48014;SDS011;33780;51.034;7.120;2022-08-02T05:47:33;3.60;;;2.50;;
48014;SDS011;33780;51.034;7.120;2022-08-02T05:49:59;3.35;;;2.30;;
48014;SDS011;33780;51.034;7.120;2022-08-02T05:52:25;4.05;;;2.42;;
48014;SDS011;33780;51.034;7.120;2022-08-02T05:57:41;3.65;;;2.45;;
48014;SDS011;33780;51.034;7.120;2022-08-02T06:00:29;4.30;;;2.20;;
48014;SDS011;33780;51.034;7.120;2022-08-02T06:05:38;3.53;;;2.42;;
48014;SDS011;33780;51.034;7.120;2022-08-02T06:08:06;4.55;;;2.30;;
48014;SDS011;33780;51.034;7.120;2022-08-02T06:10:35;3.15;;;2.17;;
48014;SDS011;33780;51.034;7.120;2022-08-02T06:13:11;3.60;;;2.40;;
48014;SDS011;33780;51.034;7.120;2022-08-02T06:15:38;4.85;;;2.60;;
48014;SDS011;33780;51.034;7.120;2022-08-02T06:18:05;4.57;;;2.33;;
48014;SDS011;33780;51.034;7.120;2022-08-02T06:20:40;5.93;;;2.50;;
48014;SDS011;33780;51.034;7.120;2022-08-02T06:23:07;3.00;;;2.47;;
48014;SDS011;33780;51.034;7.120;2022-08-02T06:25:36;4.45;;;2.45;;
48014;SDS011;33780;51.034;7.120;2022-08-02T06:28:07;4.20;;;2.53;;
48014;SDS011;33780;51.034;7.120;2022-08-02T06:30:55;4.95;;;2.30;;
48014;SDS011;33780;51.034;7.120;2022-08-02T06:33:40;4.90;;;2.45;;
48014;SDS011;33780;51.034;7.120;2022-08-02T06:36:09;5.28;;;2.33;;
48014;SDS011;33780;51.034;7.120;2022-08-02T06:42:12;3.70;;;2.20;;
48014;SDS011;33780;51.034;7.120;2022-08-02T06:44:59;5.72;;;2.45;;
48014;SDS011;33780;51.034;7.120;2022-08-02T06:50:24;3.42;;;2.30;;
48014;SDS011;33780;51.034;7.120;2022-08-02T06:52:58;5.90;;;2.42;;
48014;SDS011;33780;51.034;7.120;2022-08-02T06:55:26;3.33;;;2.50;;
48014;SDS011;33780;51.034;7.120;2022-08-02T07:00:29;4.25;;;2.50;;
48014;SDS011;33780;51.034;7.120;2022-08-02T07:02:55;3.80;;;2.58;;
48014;SDS011;33780;51.034;7.120;2022-08-02T07:05:24;4.53;;;2.78;;
48014;SDS011;33780;51.034;7.120;2022-08-02T07:07:53;4.28;;;2.42;;
48014;SDS011;33780;51.034;7.120;2022-08-02T07:10:25;5.38;;;2.33;;
48014;SDS011;33780;51.034;7.120;2022-08-02T07:12:50;5.00;;;2.50;;
48014;SDS011;33780;51.034;7.120;2022-08-02T07:15:23;5.15;;;2.85;;
48014;SDS011;33780;51.034;7.120;2022-08-02T07:17:51;4.03;;;2.42;;
48014;SDS011;33780;51.034;7.120;2022-08-02T07:20:17;4.15;;;2.55;;
48014;SDS011;33780;51.034;7.120;2022-08-02T07:22:43;5.25;;;2.83;;
48014;SDS011;33780;51.034;7.120;2022-08-02T07:25:09;4.95;;;3.10;;
48014;SDS011;33780;51.034;7.120;2022-08-02T07:27:43;4.85;;;2.90;;
48014;SDS011;33780;51.034;7.120;2022-08-02T07:30:09;5.28;;;2.85;;
48014;SDS011;33780;51.034;7.120;2022-08-02T07:32:35;3.97;;;2.67;;
48014;SDS011;33780;51.034;7.120;2022-08-02T07:35:00;5.57;;;2.97;;
48014;SDS011;33780;51.034;7.120;2022-08-02T07:37:27;5.53;;;2.58;;
48014;SDS011;33780;51.034;7.120;2022-08-02T07:39:54;4.40;;;2.78;;
48014;SDS011;33780;51.034;7.120;2022-08-02T07:42:20;3.85;;;2.22;;
48014;SDS011;33780;51.034;7.120;2022-08-02T07:49:54;4.63;;;2.65;;
48014;SDS011;33780;51.034;7.120;2022-08-02T07:52:19;3.72;;;2.50;;
48014;SDS011;33780;51.034;7.120;2022-08-02T07:54:45;3.80;;;2.10;;
48014;SDS011;33780;51.034;7.120;2022-08-02T07:57:10;3.13;;;2.10;;
48014;SDS011;33780;51.034;7.120;2022-08-02T07:59:45;2.80;;;1.80;;
48014;SDS011;33780;51.034;7.120;2022-08-02T08:02:12;3.17;;;1.83;;
48014;SDS011;33780;51.034;7.120;2022-08-02T08:04:38;3.08;;;2.03;;
48014;SDS011;33780;51.034;7.120;2022-08-02T08:07:04;3.90;;;1.60;;
48014;SDS011;33780;51.034;7.120;2022-08-02T08:09:30;3.15;;;1.58;;
48014;SDS011;33780;51.034;7.120;2022-08-02T08:11:55;3.88;;;1.70;;
48014;SDS011;33780;51.034;7.120;2022-08-02T08:14:21;2.10;;;1.48;;
48014;SDS011;33780;51.034;7.120;2022-08-02T08:16:46;6.28;;;2.20;;
48014;SDS011;33780;51.034;7.120;2022-08-02T08:19:11;2.50;;;1.60;;
48014;SDS011;33780;51.034;7.120;2022-08-02T08:21:38;2.83;;;1.40;;
48014;SDS011;33780;51.034;7.120;2022-08-02T08:24:03;2.70;;;1.50;;
48014;SDS011;33780;51.034;7.120;2022-08-02T08:26:29;2.38;;;1.50;;
48014;SDS011;33780;51.034;7.120;2022-08-02T08:28:54;2.40;;;1.50;;
48014;SDS011;33780;51.034;7.120;2022-08-02T08:31:20;2.40;;;1.45;;
48014;SDS011;33780;51.034;7.120;2022-08-02T08:33:45;3.08;;;1.60;;
48014;SDS011;33780;51.034;7.120;2022-08-02T08:36:11;2.33;;;1.40;;
48014;SDS011;33780;51.034;7.120;2022-08-02T08:38:36;2.25;;;1.30;;
48014;SDS011;33780;51.034;7.120;2022-08-02T08:41:02;1.92;;;1.38;;
48014;SDS011;33780;51.034;7.120;2022-08-02T08:43:27;2.83;;;1.35;;
48014;SDS011;33780;51.034;7.120;2022-08-02T08:45:52;2.70;;;1.45;;
48014;SDS011;33780;51.034;7.120;2022-08-02T08:48:18;6.22;;;1.40;;
48014;SDS011;33780;51.034;7.120;2022-08-02T08:50:52;2.22;;;1.50;;
48014;SDS011;33780;51.034;7.120;2022-08-02T08:53:20;2.97;;;1.50;;
48014;SDS011;33780;51.034;7.120;2022-08-02T08:55:49;1.98;;;1.40;;
48014;SDS011;33780;51.034;7.120;2022-08-02T08:58:17;2.10;;;1.35;;
48014;SDS011;33780;51.034;7.120;2022-08-02T09:00:43;3.25;;;1.50;;
48014;SDS011;33780;51.034;7.120;2022-08-02T09:03:10;2.40;;;1.42;;
48014;SDS011;33780;51.034;7.120;2022-08-02T09:05:37;3.55;;;1.60;;
48014;SDS011;33780;51.034;7.120;2022-08-02T09:08:03;2.72;;;1.58;;
48014;SDS011;33780;51.034;7.120;2022-08-02T09:13:12;2.95;;;2.13;;
48014;SDS011;33780;51.034;7.120;2022-08-02T09:15:43;2.25;;;1.50;;
48014;SDS011;33780;51.034;7.120;2022-08-02T09:18:16;2.33;;;1.50;;
48014;SDS011;33780;51.034;7.120;2022-08-02T09:20:52;3.35;;;1.67;;
48014;SDS011;33780;51.034;7.120;2022-08-02T09:23:22;4.05;;;1.80;;
48014;SDS011;33780;51.034;7.120;2022-08-02T09:25:59;4.60;;;1.80;;
48014;SDS011;33780;51.034;7.120;2022-08-02T09:28:26;3.50;;;1.67;;
48014;SDS011;33780;51.034;7.120;2022-08-02T09:31:14;3.95;;;1.70;;
48014;SDS011;33780;51.034;7.120;2022-08-02T09:33:52;5.13;;;1.83;;
48014;SDS011;33780;51.034;7.120;2022-08-02T09:36:21;2.33;;;1.75;;
48014;SDS011;33780;51.034;7.120;2022-08-02T09:38:52;2.92;;;1.88;;
48014;SDS011;33780;51.034;7.120;2022-08-02T09:41:31;2.55;;;1.70;;
48014;SDS011;33780;51.034;7.120;2022-08-02T09:43:59;2.83;;;1.70;;
48014;SDS011;33780;51.034;7.120;2022-08-02T09:46:27;2.50;;;1.70;;
48014;SDS011;33780;51.034;7.120;2022-08-02T09:49:10;3.03;;;1.88;;
48014;SDS011;33780;51.034;7.120;2022-08-02T09:54:07;2.10;;;1.60;;
48014;SDS011;33780;51.034;7.120;2022-08-02T09:56:40;2.58;;;1.50;;
48014;SDS011;33780;51.034;7.120;2022-08-02T09:59:18;2.37;;;1.57;;
48014;SDS011;33780;51.034;7.120;2022-08-02T10:02:22;3.75;;;1.63;;
48014;SDS011;33780;51.034;7.120;2022-08-02T10:04:48;3.35;;;2.10;;
48014;SDS011;33780;51.034;7.120;2022-08-02T10:07:20;2.20;;;1.50;;
48014;SDS011;33780;51.034;7.120;2022-08-02T10:09:46;2.72;;;1.63;;
48014;SDS011;33780;51.034;7.120;2022-08-02T10:12:14;2.15;;;1.45;;
48014;SDS011;33780;51.034;7.120;2022-08-02T10:14:54;2.88;;;1.77;;
48014;SDS011;33780;51.034;7.120;2022-08-02T10:17:20;3.00;;;1.67;;
48014;SDS011;33780;51.034;7.120;2022-08-02T10:19:45;5.47;;;1.90;;
48014;SDS011;33780;51.034;7.120;2022-08-02T10:22:12;3.13;;;1.52;;
48014;SDS011;33780;51.034;7.120;2022-08-02T10:24:40;2.10;;;1.50;;
48014;SDS011;33780;51.034;7.120;2022-08-02T10:30:30;3.22;;;1.60;;
48014;SDS011;33780;51.034;7.120;2022-08-02T10:32:57;2.20;;;1.60;;
48014;SDS011;33780;51.034;7.120;2022-08-02T10:35:23;3.28;;;1.90;;
48014;SDS011;33780;51.034;7.120;2022-08-02T10:37:51;1.88;;;1.48;;
48014;SDS011;33780;51.034;7.120;2022-08-02T10:40:19;2.40;;;1.75;;
48014;SDS011;33780;51.034;7.120;2022-08-02T10:46:27;2.30;;;1.40;;
48014;SDS011;33780;51.034;7.120;2022-08-02T10:49:02;1.95;;;1.52;;
48014;SDS011;33780;51.034;7.120;2022-08-02T10:54:20;2.65;;;1.60;;
48014;SDS011;33780;51.034;7.120;2022-08-02T10:56:48;3.75;;;1.60;;
48014;SDS011;33780;51.034;7.120;2022-08-02T10:59:25;2.20;;;1.50;;
48014;SDS011;33780;51.034;7.120;2022-08-02T11:01:59;2.28;;;1.30;;
48014;SDS011;33780;51.034;7.120;2022-08-02T11:09:38;1.70;;;1.15;;
48014;SDS011;33780;51.034;7.120;2022-08-02T11:12:05;2.22;;;1.42;;
48014;SDS011;33780;51.034;7.120;2022-08-02T11:14:39;2.30;;;1.27;;
48014;SDS011;33780;51.034;7.120;2022-08-02T11:17:06;2.92;;;1.30;;
48014;SDS011;33780;51.034;7.120;2022-08-02T11:22:36;1.77;;;1.13;;
48014;SDS011;33780;51.034;7.120;2022-08-02T11:27:45;2.50;;;1.30;;
48014;SDS011;33780;51.034;7.120;2022-08-02T11:30:22;2.50;;;1.35;;
48014;SDS011;33780;51.034;7.120;2022-08-02T11:32:50;2.25;;;1.25;;
48014;SDS011;33780;51.034;7.120;2022-08-02T11:35:20;5.25;;;1.40;;
48014;SDS011;33780;51.034;7.120;2022-08-02T11:37:47;1.77;;;1.20;;
48014;SDS011;33780;51.034;7.120;2022-08-02T11:40:18;3.35;;;1.40;;
48014;SDS011;33780;51.034;7.120;2022-08-02T11:43:35;2.28;;;1.30;;
48014;SDS011;33780;51.034;7.120;2022-08-02T11:46:13;2.13;;;1.10;;
48014;SDS011;33780;51.034;7.120;2022-08-02T11:49:20;2.03;;;1.20;;
48014;SDS011;33780;51.034;7.120;2022-08-02T11:52:08;3.85;;;1.35;;
48014;SDS011;33780;51.034;7.120;2022-08-02T11:54:42;1.92;;;1.20;;
48014;SDS011;33780;51.034;7.120;2022-08-02T11:57:17;3.28;;;1.85;;
48014;SDS011;33780;51.034;7.120;2022-08-02T11:59:45;1.75;;;1.10;;
48014;SDS011;33780;51.034;7.120;2022-08-02T12:02:56;1.95;;;1.27;;
48014;SDS011;33780;51.034;7.120;2022-08-02T12:05:34;2.15;;;1.10;;
48014;SDS011;33780;51.034;7.120;2022-08-02T12:08:00;1.63;;;1.30;;
48014;SDS011;33780;51.034;7.120;2022-08-02T12:16:42;3.00;;;1.45;;
48014;SDS011;33780;51.034;7.120;2022-08-02T12:19:26;2.35;;;1.23;;
48014;SDS011;33780;51.034;7.120;2022-08-02T12:25:27;2.13;;;1.30;;
48014;SDS011;33780;51.034;7.120;2022-08-02T12:28:11;1.90;;;1.10;;
48014;SDS011;33780;51.034;7.120;2022-08-02T12:30:50;2.10;;;1.38;;
48014;SDS011;33780;51.034;7.120;2022-08-02T12:33:17;1.67;;;1.10;;
48014;SDS011;33780;51.034;7.120;2022-08-02T12:35:43;2.58;;;1.23;;
48014;SDS011;33780;51.034;7.120;2022-08-02T12:38:09;1.80;;;1.10;;
48014;SDS011;33780;51.034;7.120;2022-08-02T12:40:35;1.60;;;1.00;;
48014;SDS011;33780;51.034;7.120;2022-08-02T12:43:03;2.38;;;1.08;;
48014;SDS011;33780;51.034;7.120;2022-08-02T12:45:30;1.90;;;1.25;;
48014;SDS011;33780;51.034;7.120;2022-08-02T12:47:58;1.52;;;1.10;;
48014;SDS011;33780;51.034;7.120;2022-08-02T12:55:55;2.03;;;1.10;;
48014;SDS011;33780;51.034;7.120;2022-08-02T12:58:21;2.17;;;1.60;;
48014;SDS011;33780;51.034;7.120;2022-08-02T13:00:51;1.90;;;1.27;;
48014;SDS011;33780;51.034;7.120;2022-08-02T13:03:18;2.05;;;1.10;;
48014;SDS011;33780;51.034;7.120;2022-08-02T13:05:50;2.05;;;1.20;;
48014;SDS011;33780;51.034;7.120;2022-08-02T13:08:55;2.20;;;1.23;;
48014;SDS011;33780;51.034;7.120;2022-08-02T13:11:25;4.30;;;1.20;;
48014;SDS011;33780;51.034;7.120;2022-08-02T13:14:03;3.22;;;1.27;;
48014;SDS011;33780;51.034;7.120;2022-08-02T13:16:28;2.92;;;1.30;;
48014;SDS011;33780;51.034;7.120;2022-08-02T13:18:55;3.00;;;1.25;;
48014;SDS011;33780;51.034;7.120;2022-08-02T13:21:20;1.80;;;1.20;;
48014;SDS011;33780;51.034;7.120;2022-08-02T13:23:46;1.60;;;1.10;;
48014;SDS011;33780;51.034;7.120;2022-08-02T13:26:11;1.75;;;1.20;;
48014;SDS011;33780;51.034;7.120;2022-08-02T13:28:36;3.58;;;1.30;;
48014;SDS011;33780;51.034;7.120;2022-08-02T13:31:06;2.00;;;1.17;;
48014;SDS011;33780;51.034;7.120;2022-08-02T13:33:32;2.33;;;1.45;;
48014;SDS011;33780;51.034;7.120;2022-08-02T13:35:57;1.88;;;1.27;;
48014;SDS011;33780;51.034;7.120;2022-08-02T13:38:23;2.30;;;1.33;;
48014;SDS011;33780;51.034;7.120;2022-08-02T13:40:48;1.92;;;1.23;;
48014;SDS011;33780;51.034;7.120;2022-08-02T13:43:32;2.33;;;1.38;;
48014;SDS011;33780;51.034;7.120;2022-08-02T13:45:58;1.88;;;1.10;;
48014;SDS011;33780;51.034;7.120;2022-08-02T13:48:23;2.40;;;1.30;;
48014;SDS011;33780;51.034;7.120;2022-08-02T13:50:49;3.03;;;1.27;;
48014;SDS011;33780;51.034;7.120;2022-08-02T13:53:14;1.85;;;1.13;;
48014;SDS011;33780;51.034;7.120;2022-08-02T13:55:39;2.30;;;1.33;;
48014;SDS011;33780;51.034;7.120;2022-08-02T13:58:05;1.80;;;1.20;;
48014;SDS011;33780;51.034;7.120;2022-08-02T14:00:30;2.33;;;1.33;;
48014;SDS011;33780;51.034;7.120;2022-08-02T14:02:55;1.75;;;1.10;;
48014;SDS011;33780;51.034;7.120;2022-08-02T14:05:21;2.28;;;1.60;;
48014;SDS011;33780;51.034;7.120;2022-08-02T14:07:46;1.95;;;1.20;;
48014;SDS011;33780;51.034;7.120;2022-08-02T14:10:11;2.20;;;1.08;;
48014;SDS011;33780;51.034;7.120;2022-08-02T14:12:37;1.58;;;1.20;;
48014;SDS011;33780;51.034;7.120;2022-08-02T14:15:02;3.67;;;1.23;;
48014;SDS011;33780;51.034;7.120;2022-08-02T14:17:28;3.03;;;1.30;;
48014;SDS011;33780;51.034;7.120;2022-08-02T14:19:53;3.45;;;1.30;;
48014;SDS011;33780;51.034;7.120;2022-08-02T14:22:18;1.90;;;1.13;;
48014;SDS011;33780;51.034;7.120;2022-08-02T14:24:44;2.95;;;1.13;;
48014;SDS011;33780;51.034;7.120;2022-08-02T14:27:09;2.15;;;1.10;;
48014;SDS011;33780;51.034;7.120;2022-08-02T14:29:35;1.98;;;1.00;;
48014;SDS011;33780;51.034;7.120;2022-08-02T14:32:00;2.88;;;1.30;;
48014;SDS011;33780;51.034;7.120;2022-08-02T14:34:26;2.55;;;1.20;;
48014;SDS011;33780;51.034;7.120;2022-08-02T14:36:52;3.28;;;1.25;;
48014;SDS011;33780;51.034;7.120;2022-08-02T14:39:18;2.78;;;0.90;;
48014;SDS011;33780;51.034;7.120;2022-08-02T14:41:46;3.17;;;1.10;;
48014;SDS011;33780;51.034;7.120;2022-08-02T14:44:13;1.95;;;1.20;;
48014;SDS011;33780;51.034;7.120;2022-08-02T14:46:39;1.90;;;1.13;;
48014;SDS011;33780;51.034;7.120;2022-08-02T14:49:05;1.80;;;1.10;;
48014;SDS011;33780;51.034;7.120;2022-08-02T14:51:33;2.13;;;1.27;;
48014;SDS011;33780;51.034;7.120;2022-08-02T14:53:59;1.77;;;1.10;;
48014;SDS011;33780;51.034;7.120;2022-08-02T14:56:25;2.47;;;1.13;;
48014;SDS011;33780;51.034;7.120;2022-08-02T14:58:51;2.67;;;1.60;;
48014;SDS011;33780;51.034;7.120;2022-08-02T15:01:16;2.00;;;1.20;;
48014;SDS011;33780;51.034;7.120;2022-08-02T15:03:42;1.90;;;1.15;;
48014;SDS011;33780;51.034;7.120;2022-08-02T15:06:07;1.52;;;1.10;;
48014;SDS011;33780;51.034;7.120;2022-08-02T15:08:32;2.17;;;1.10;;
48014;SDS011;33780;51.034;7.120;2022-08-02T15:10:58;2.85;;;1.55;;
48014;SDS011;33780;51.034;7.120;2022-08-02T15:13:23;2.25;;;1.27;;
48014;SDS011;33780;51.034;7.120;2022-08-02T15:15:48;2.10;;;1.33;;
48014;SDS011;33780;51.034;7.120;2022-08-02T15:18:14;3.55;;;1.50;;
48014;SDS011;33780;51.034;7.120;2022-08-02T15:20:40;2.75;;;1.17;;
48014;SDS011;33780;51.034;7.120;2022-08-02T15:23:06;1.90;;;1.10;;
48014;SDS011;33780;51.034;7.120;2022-08-02T15:25:31;1.95;;;1.17;;
48014;SDS011;33780;51.034;7.120;2022-08-02T15:27:56;1.75;;;1.13;;
48014;SDS011;33780;51.034;7.120;2022-08-02T15:30:22;2.00;;;1.25;;
48014;SDS011;33780;51.034;7.120;2022-08-02T15:32:47;2.47;;;1.02;;
48014;SDS011;33780;51.034;7.120;2022-08-02T15:35:14;2.08;;;1.20;;
48014;SDS011;33780;51.034;7.120;2022-08-02T15:37:39;3.45;;;1.33;;
48014;SDS011;33780;51.034;7.120;2022-08-02T15:40:05;2.33;;;0.95;;
48014;SDS011;33780;51.034;7.120;2022-08-02T15:42:30;2.38;;;1.35;;
48014;SDS011;33780;51.034;7.120;2022-08-02T15:44:56;2.22;;;1.20;;
48014;SDS011;33780;51.034;7.120;2022-08-02T15:47:21;2.83;;;1.23;;
48014;SDS011;33780;51.034;7.120;2022-08-02T15:49:47;5.13;;;1.42;;
48014;SDS011;33780;51.034;7.120;2022-08-02T15:52:12;4.68;;;1.38;;
48014;SDS011;33780;51.034;7.120;2022-08-02T15:54:39;2.15;;;1.27;;
48014;SDS011;33780;51.034;7.120;2022-08-02T15:57:04;1.77;;;1.10;;
48014;SDS011;33780;51.034;7.120;2022-08-02T15:59:30;2.17;;;1.30;;
48014;SDS011;33780;51.034;7.120;2022-08-02T16:01:55;2.67;;;1.20;;
48014;SDS011;33780;51.034;7.120;2022-08-02T16:04:20;1.67;;;1.10;;
48014;SDS011;33780;51.034;7.120;2022-08-02T16:06:46;3.65;;;1.02;;
48014;SDS011;33780;51.034;7.120;2022-08-02T16:09:11;3.30;;;1.20;;
48014;SDS011;33780;51.034;7.120;2022-08-02T16:11:37;3.83;;;1.20;;
48014;SDS011;33780;51.034;7.120;2022-08-02T16:14:02;2.33;;;1.20;;